sensor_id;sensor_type;location;lat;lon;timestamp;P1;durP1;ratioP1;P2;durP2;ratioP2
10653;SDS011;5375;51.250;6.776;2022-11-11T00:01:31;8.02;;;3.33;;
10653;SDS011;5375;51.250;6.776;2022-11-11T00:03:56;5.95;;;2.55;;
10653;SDS011;5375;51.250;6.776;2022-11-11T00:06:22;6.10;;;2.75;;
10653;SDS011;5375;51.250;6.776;2022-11-11T00:08:48;5.18;;;2.80;;
10653;SDS011;5375;51.250;6.776;2022-11-11T00:11:14;6.95;;;3.15;;
10653;SDS011;5375;51.250;6.776;2022-11-11T00:13:41;6.20;;;2.80;;
10653;SDS011;5375;51.250;6.776;2022-11-11T00:16:11;6.97;;;2.78;;
10653;SDS011;5375;51.250;6.776;2022-11-11T00:18:38;5.82;;;3.17;;
10653;SDS011;5375;51.250;6.776;2022-11-11T00:21:23;8.05;;;2.88;;
10653;SDS011;5375;51.250;6.776;2022-11-11T00:24:27;5.90;;;2.80;;
10653;SDS011;5375;51.250;6.776;2022-11-11T00:27:12;3.88;;;2.38;;
10653;SDS011;5375;51.250;6.776;2022-11-11T00:29:39;4.50;;;2.70;;
10653;SDS011;5375;51.250;6.776;2022-11-11T00:32:06;4.35;;;2.55;;
10653;SDS011;5375;51.250;6.776;2022-11-11T00:34:48;4.73;;;2.20;;
10653;SDS011;5375;51.250;6.776;2022-11-11T00:37:33;4.20;;;2.07;;
10653;SDS011;5375;51.250;6.776;2022-11-11T00:39:59;5.00;;;2.70;;
10653;SDS011;5375;51.250;6.776;2022-11-11T00:42:25;4.40;;;2.65;;
10653;SDS011;5375;51.250;6.776;2022-11-11T00:44:51;6.57;;;2.50;;
10653;SDS011;5375;51.250;6.776;2022-11-11T00:47:16;5.03;;;2.28;;
10653;SDS011;5375;51.250;6.776;2022-11-11T00:52:36;5.10;;;2.30;;
10653;SDS011;5375;51.250;6.776;2022-11-11T00:55:01;4.68;;;2.58;;
10653;SDS011;5375;51.250;6.776;2022-11-11T00:57:27;4.22;;;2.17;;
10653;SDS011;5375;51.250;6.776;2022-11-11T00:59:53;5.13;;;2.30;;
10653;SDS011;5375;51.250;6.776;2022-11-11T01:02:19;4.63;;;2.00;;
10653;SDS011;5375;51.250;6.776;2022-11-11T01:04:44;3.90;;;2.30;;
10653;SDS011;5375;51.250;6.776;2022-11-11T01:07:10;3.72;;;2.20;;
10653;SDS011;5375;51.250;6.776;2022-11-11T01:09:36;3.33;;;2.00;;
10653;SDS011;5375;51.250;6.776;2022-11-11T01:12:01;4.67;;;2.10;;
10653;SDS011;5375;51.250;6.776;2022-11-11T01:14:27;6.15;;;2.40;;
10653;SDS011;5375;51.250;6.776;2022-11-11T01:16:54;3.10;;;1.92;;
10653;SDS011;5375;51.250;6.776;2022-11-11T01:19:19;3.67;;;1.98;;
10653;SDS011;5375;51.250;6.776;2022-11-11T01:21:45;3.23;;;2.03;;
10653;SDS011;5375;51.250;6.776;2022-11-11T01:24:11;5.00;;;2.20;;
10653;SDS011;5375;51.250;6.776;2022-11-11T01:26:36;4.28;;;2.03;;
10653;SDS011;5375;51.250;6.776;2022-11-11T01:29:02;4.93;;;2.00;;
10653;SDS011;5375;51.250;6.776;2022-11-11T01:31:28;3.53;;;2.30;;
10653;SDS011;5375;51.250;6.776;2022-11-11T01:33:53;4.10;;;2.17;;
10653;SDS011;5375;51.250;6.776;2022-11-11T01:36:23;4.13;;;2.25;;
10653;SDS011;5375;51.250;6.776;2022-11-11T01:38:51;2.58;;;1.88;;
10653;SDS011;5375;51.250;6.776;2022-11-11T01:41:25;2.77;;;1.93;;
10653;SDS011;5375;51.250;6.776;2022-11-11T01:46:44;2.70;;;1.90;;
10653;SDS011;5375;51.250;6.776;2022-11-11T01:51:58;4.05;;;2.28;;
10653;SDS011;5375;51.250;6.776;2022-11-11T01:54:40;5.05;;;2.33;;
10653;SDS011;5375;51.250;6.776;2022-11-11T01:57:24;3.58;;;1.92;;
10653;SDS011;5375;51.250;6.776;2022-11-11T01:59:52;2.65;;;1.80;;
10653;SDS011;5375;51.250;6.776;2022-11-11T02:02:37;3.33;;;1.98;;
10653;SDS011;5375;51.250;6.776;2022-11-11T02:05:16;2.95;;;1.65;;
10653;SDS011;5375;51.250;6.776;2022-11-11T02:11:02;2.30;;;1.77;;
10653;SDS011;5375;51.250;6.776;2022-11-11T02:13:37;3.10;;;1.80;;
10653;SDS011;5375;51.250;6.776;2022-11-11T02:16:24;4.93;;;1.97;;
10653;SDS011;5375;51.250;6.776;2022-11-11T02:18:50;3.80;;;2.20;;
10653;SDS011;5375;51.250;6.776;2022-11-11T02:21:24;3.08;;;2.00;;
10653;SDS011;5375;51.250;6.776;2022-11-11T02:24:07;5.93;;;2.17;;
10653;SDS011;5375;51.250;6.776;2022-11-11T02:26:35;3.30;;;2.00;;
10653;SDS011;5375;51.250;6.776;2022-11-11T02:29:03;4.80;;;1.98;;
10653;SDS011;5375;51.250;6.776;2022-11-11T02:31:34;2.80;;;2.00;;
10653;SDS011;5375;51.250;6.776;2022-11-11T02:34:00;3.70;;;2.05;;
10653;SDS011;5375;51.250;6.776;2022-11-11T02:36:26;3.25;;;1.77;;
10653;SDS011;5375;51.250;6.776;2022-11-11T02:38:52;4.00;;;2.20;;
10653;SDS011;5375;51.250;6.776;2022-11-11T02:41:18;5.13;;;2.17;;
10653;SDS011;5375;51.250;6.776;2022-11-11T02:44:03;2.72;;;2.00;;
10653;SDS011;5375;51.250;6.776;2022-11-11T02:46:28;2.97;;;1.85;;
10653;SDS011;5375;51.250;6.776;2022-11-11T02:48:54;3.33;;;2.00;;
10653;SDS011;5375;51.250;6.776;2022-11-11T02:51:20;3.45;;;1.90;;
10653;SDS011;5375;51.250;6.776;2022-11-11T02:53:45;3.15;;;2.10;;
10653;SDS011;5375;51.250;6.776;2022-11-11T02:56:11;4.47;;;1.92;;
10653;SDS011;5375;51.250;6.776;2022-11-11T02:58:57;4.43;;;2.38;;
10653;SDS011;5375;51.250;6.776;2022-11-11T03:01:22;3.53;;;1.85;;
10653;SDS011;5375;51.250;6.776;2022-11-11T03:03:48;3.25;;;1.98;;
10653;SDS011;5375;51.250;6.776;2022-11-11T03:06:14;4.43;;;2.10;;
10653;SDS011;5375;51.250;6.776;2022-11-11T03:08:39;2.53;;;1.85;;
10653;SDS011;5375;51.250;6.776;2022-11-11T03:11:05;3.92;;;2.05;;
10653;SDS011;5375;51.250;6.776;2022-11-11T03:13:31;3.55;;;1.88;;
10653;SDS011;5375;51.250;6.776;2022-11-11T03:15:56;3.83;;;2.08;;
10653;SDS011;5375;51.250;6.776;2022-11-11T03:18:22;3.13;;;2.00;;
10653;SDS011;5375;51.250;6.776;2022-11-11T03:20:48;3.53;;;2.00;;
10653;SDS011;5375;51.250;6.776;2022-11-11T03:23:28;5.60;;;2.00;;
10653;SDS011;5375;51.250;6.776;2022-11-11T03:25:54;3.42;;;2.00;;
10653;SDS011;5375;51.250;6.776;2022-11-11T03:28:20;3.80;;;2.00;;
10653;SDS011;5375;51.250;6.776;2022-11-11T03:30:47;2.97;;;2.00;;
10653;SDS011;5375;51.250;6.776;2022-11-11T03:33:14;5.38;;;2.15;;
10653;SDS011;5375;51.250;6.776;2022-11-11T03:35:40;7.85;;;2.05;;
10653;SDS011;5375;51.250;6.776;2022-11-11T03:38:08;3.08;;;2.00;;
10653;SDS011;5375;51.250;6.776;2022-11-11T03:40:51;3.40;;;1.90;;
10653;SDS011;5375;51.250;6.776;2022-11-11T03:43:19;2.67;;;1.80;;
10653;SDS011;5375;51.250;6.776;2022-11-11T03:45:46;2.85;;;1.85;;
10653;SDS011;5375;51.250;6.776;2022-11-11T03:48:13;3.90;;;1.73;;
10653;SDS011;5375;51.250;6.776;2022-11-11T03:50:39;3.63;;;2.33;;
10653;SDS011;5375;51.250;6.776;2022-11-11T03:53:05;4.65;;;2.03;;
10653;SDS011;5375;51.250;6.776;2022-11-11T03:55:31;2.72;;;1.73;;
10653;SDS011;5375;51.250;6.776;2022-11-11T03:57:57;4.13;;;1.90;;
10653;SDS011;5375;51.250;6.776;2022-11-11T04:00:23;2.38;;;1.70;;
10653;SDS011;5375;51.250;6.776;2022-11-11T04:02:50;2.42;;;1.60;;
10653;SDS011;5375;51.250;6.776;2022-11-11T04:05:43;3.17;;;1.90;;
10653;SDS011;5375;51.250;6.776;2022-11-11T04:08:27;3.10;;;1.98;;
10653;SDS011;5375;51.250;6.776;2022-11-11T04:11:12;2.92;;;1.85;;
10653;SDS011;5375;51.250;6.776;2022-11-11T04:13:41;3.55;;;1.90;;
10653;SDS011;5375;51.250;6.776;2022-11-11T04:16:29;3.95;;;1.92;;
10653;SDS011;5375;51.250;6.776;2022-11-11T04:18:54;2.85;;;1.70;;
10653;SDS011;5375;51.250;6.776;2022-11-11T04:21:39;3.17;;;2.17;;
10653;SDS011;5375;51.250;6.776;2022-11-11T04:24:08;2.50;;;1.90;;
10653;SDS011;5375;51.250;6.776;2022-11-11T04:26:54;2.88;;;1.80;;
10653;SDS011;5375;51.250;6.776;2022-11-11T04:29:21;3.38;;;1.83;;
10653;SDS011;5375;51.250;6.776;2022-11-11T04:31:59;3.28;;;2.05;;
10653;SDS011;5375;51.250;6.776;2022-11-11T04:34:49;5.20;;;1.85;;
10653;SDS011;5375;51.250;6.776;2022-11-11T04:37:18;5.22;;;2.28;;
10653;SDS011;5375;51.250;6.776;2022-11-11T04:39:44;3.38;;;1.90;;
10653;SDS011;5375;51.250;6.776;2022-11-11T04:42:29;5.15;;;2.05;;
10653;SDS011;5375;51.250;6.776;2022-11-11T04:44:56;3.80;;;2.08;;
10653;SDS011;5375;51.250;6.776;2022-11-11T04:48:00;5.32;;;1.90;;
10653;SDS011;5375;51.250;6.776;2022-11-11T04:50:27;2.60;;;1.88;;
10653;SDS011;5375;51.250;6.776;2022-11-11T04:52:58;4.78;;;1.67;;
10653;SDS011;5375;51.250;6.776;2022-11-11T04:55:24;3.75;;;1.92;;
10653;SDS011;5375;51.250;6.776;2022-11-11T04:58:09;3.60;;;2.05;;
10653;SDS011;5375;51.250;6.776;2022-11-11T05:00:35;10.90;;;2.17;;
10653;SDS011;5375;51.250;6.776;2022-11-11T05:03:01;4.63;;;2.17;;
10653;SDS011;5375;51.250;6.776;2022-11-11T05:05:58;6.50;;;2.17;;
10653;SDS011;5375;51.250;6.776;2022-11-11T05:08:47;7.53;;;2.25;;
10653;SDS011;5375;51.250;6.776;2022-11-11T05:13:51;6.70;;;1.88;;
10653;SDS011;5375;51.250;6.776;2022-11-11T05:16:41;6.15;;;1.77;;
10653;SDS011;5375;51.250;6.776;2022-11-11T05:19:27;5.68;;;2.33;;
10653;SDS011;5375;51.250;6.776;2022-11-11T05:22:15;4.35;;;1.85;;
10653;SDS011;5375;51.250;6.776;2022-11-11T05:24:45;5.10;;;2.20;;
10653;SDS011;5375;51.250;6.776;2022-11-11T05:27:29;7.90;;;2.47;;
10653;SDS011;5375;51.250;6.776;2022-11-11T05:29:55;4.40;;;1.88;;
10653;SDS011;5375;51.250;6.776;2022-11-11T05:32:21;5.15;;;1.52;;
10653;SDS011;5375;51.250;6.776;2022-11-11T05:34:48;4.22;;;1.85;;
10653;SDS011;5375;51.250;6.776;2022-11-11T05:37:14;3.83;;;1.75;;
10653;SDS011;5375;51.250;6.776;2022-11-11T05:39:40;3.00;;;1.75;;
10653;SDS011;5375;51.250;6.776;2022-11-11T05:42:07;7.72;;;1.85;;
10653;SDS011;5375;51.250;6.776;2022-11-11T05:44:33;3.85;;;1.95;;
10653;SDS011;5375;51.250;6.776;2022-11-11T05:46:59;4.00;;;1.70;;
10653;SDS011;5375;51.250;6.776;2022-11-11T05:49:25;3.63;;;1.70;;
10653;SDS011;5375;51.250;6.776;2022-11-11T05:51:51;3.88;;;1.90;;
10653;SDS011;5375;51.250;6.776;2022-11-11T05:54:17;6.15;;;1.88;;
10653;SDS011;5375;51.250;6.776;2022-11-11T05:56:43;4.72;;;1.90;;
10653;SDS011;5375;51.250;6.776;2022-11-11T05:59:09;2.63;;;2.08;;
10653;SDS011;5375;51.250;6.776;2022-11-11T06:01:35;4.82;;;2.00;;
10653;SDS011;5375;51.250;6.776;2022-11-11T06:04:02;4.60;;;1.95;;
10653;SDS011;5375;51.250;6.776;2022-11-11T06:06:28;4.68;;;2.05;;
10653;SDS011;5375;51.250;6.776;2022-11-11T06:08:54;3.60;;;1.85;;
10653;SDS011;5375;51.250;6.776;2022-11-11T06:11:20;5.28;;;1.92;;
10653;SDS011;5375;51.250;6.776;2022-11-11T06:13:47;2.67;;;1.63;;
10653;SDS011;5375;51.250;6.776;2022-11-11T06:16:13;2.33;;;1.70;;
10653;SDS011;5375;51.250;6.776;2022-11-11T06:18:38;2.92;;;2.00;;
10653;SDS011;5375;51.250;6.776;2022-11-11T06:21:04;2.63;;;1.60;;
10653;SDS011;5375;51.250;6.776;2022-11-11T06:23:30;3.60;;;1.70;;
10653;SDS011;5375;51.250;6.776;2022-11-11T06:25:56;2.63;;;1.60;;
10653;SDS011;5375;51.250;6.776;2022-11-11T06:28:40;3.72;;;2.10;;
10653;SDS011;5375;51.250;6.776;2022-11-11T06:31:08;3.97;;;1.98;;
10653;SDS011;5375;51.250;6.776;2022-11-11T06:33:35;4.55;;;2.10;;
10653;SDS011;5375;51.250;6.776;2022-11-11T06:36:02;3.05;;;1.65;;
10653;SDS011;5375;51.250;6.776;2022-11-11T06:38:29;2.63;;;1.80;;
10653;SDS011;5375;51.250;6.776;2022-11-11T06:40:55;3.60;;;1.90;;
10653;SDS011;5375;51.250;6.776;2022-11-11T06:43:21;4.63;;;1.92;;
10653;SDS011;5375;51.250;6.776;2022-11-11T06:45:50;3.10;;;1.88;;
10653;SDS011;5375;51.250;6.776;2022-11-11T06:48:17;2.45;;;1.83;;
10653;SDS011;5375;51.250;6.776;2022-11-11T06:50:43;2.80;;;1.85;;
10653;SDS011;5375;51.250;6.776;2022-11-11T06:53:09;3.35;;;1.88;;
10653;SDS011;5375;51.250;6.776;2022-11-11T06:55:36;4.32;;;1.80;;
10653;SDS011;5375;51.250;6.776;2022-11-11T07:00:31;3.67;;;1.67;;
10653;SDS011;5375;51.250;6.776;2022-11-11T07:02:57;4.07;;;1.50;;
10653;SDS011;5375;51.250;6.776;2022-11-11T07:05:23;2.65;;;1.50;;
10653;SDS011;5375;51.250;6.776;2022-11-11T07:07:48;5.18;;;1.83;;
10653;SDS011;5375;51.250;6.776;2022-11-11T07:10:14;3.90;;;1.85;;
10653;SDS011;5375;51.250;6.776;2022-11-11T07:12:41;3.50;;;1.73;;
10653;SDS011;5375;51.250;6.776;2022-11-11T07:15:07;2.83;;;1.85;;
10653;SDS011;5375;51.250;6.776;2022-11-11T07:17:34;2.92;;;1.83;;
10653;SDS011;5375;51.250;6.776;2022-11-11T07:20:00;2.05;;;1.60;;
10653;SDS011;5375;51.250;6.776;2022-11-11T07:22:25;3.08;;;1.70;;
10653;SDS011;5375;51.250;6.776;2022-11-11T07:24:51;4.28;;;1.80;;
10653;SDS011;5375;51.250;6.776;2022-11-11T07:27:16;4.45;;;1.70;;
10653;SDS011;5375;51.250;6.776;2022-11-11T07:29:42;2.75;;;1.80;;
10653;SDS011;5375;51.250;6.776;2022-11-11T07:32:08;1.98;;;1.50;;
10653;SDS011;5375;51.250;6.776;2022-11-11T07:34:33;2.47;;;1.63;;
10653;SDS011;5375;51.250;6.776;2022-11-11T07:36:59;2.72;;;1.75;;
10653;SDS011;5375;51.250;6.776;2022-11-11T07:39:25;3.92;;;1.67;;
10653;SDS011;5375;51.250;6.776;2022-11-11T07:41:50;2.70;;;1.83;;
10653;SDS011;5375;51.250;6.776;2022-11-11T07:44:16;3.95;;;1.88;;
10653;SDS011;5375;51.250;6.776;2022-11-11T07:46:42;2.38;;;1.58;;
10653;SDS011;5375;51.250;6.776;2022-11-11T07:49:07;2.17;;;1.45;;
10653;SDS011;5375;51.250;6.776;2022-11-11T07:51:33;2.17;;;1.88;;
10653;SDS011;5375;51.250;6.776;2022-11-11T07:53:58;3.88;;;1.90;;
10653;SDS011;5375;51.250;6.776;2022-11-11T07:56:24;4.65;;;2.25;;
10653;SDS011;5375;51.250;6.776;2022-11-11T07:58:50;2.30;;;1.55;;
10653;SDS011;5375;51.250;6.776;2022-11-11T08:01:15;4.18;;;1.67;;
10653;SDS011;5375;51.250;6.776;2022-11-11T08:03:41;3.13;;;1.75;;
10653;SDS011;5375;51.250;6.776;2022-11-11T08:06:16;3.70;;;1.98;;
10653;SDS011;5375;51.250;6.776;2022-11-11T08:08:43;2.45;;;1.75;;
10653;SDS011;5375;51.250;6.776;2022-11-11T08:11:08;4.88;;;1.90;;
10653;SDS011;5375;51.250;6.776;2022-11-11T08:13:34;4.55;;;1.73;;
10653;SDS011;5375;51.250;6.776;2022-11-11T08:16:07;2.53;;;1.70;;
10653;SDS011;5375;51.250;6.776;2022-11-11T08:18:34;3.03;;;1.70;;
10653;SDS011;5375;51.250;6.776;2022-11-11T08:21:00;3.28;;;1.60;;
10653;SDS011;5375;51.250;6.776;2022-11-11T08:23:27;2.97;;;1.92;;
10653;SDS011;5375;51.250;6.776;2022-11-11T08:25:59;3.75;;;1.92;;
10653;SDS011;5375;51.250;6.776;2022-11-11T08:28:29;2.30;;;1.70;;
10653;SDS011;5375;51.250;6.776;2022-11-11T08:30:57;2.78;;;1.90;;
10653;SDS011;5375;51.250;6.776;2022-11-11T08:33:23;2.30;;;1.80;;
10653;SDS011;5375;51.250;6.776;2022-11-11T08:35:49;3.60;;;1.70;;
10653;SDS011;5375;51.250;6.776;2022-11-11T08:38:17;2.78;;;2.08;;
10653;SDS011;5375;51.250;6.776;2022-11-11T08:40:43;3.47;;;2.00;;
10653;SDS011;5375;51.250;6.776;2022-11-11T08:43:09;3.88;;;1.90;;
10653;SDS011;5375;51.250;6.776;2022-11-11T08:45:34;3.30;;;2.10;;
10653;SDS011;5375;51.250;6.776;2022-11-11T08:48:00;3.05;;;1.92;;
10653;SDS011;5375;51.250;6.776;2022-11-11T08:50:25;3.15;;;1.90;;
10653;SDS011;5375;51.250;6.776;2022-11-11T08:52:51;3.45;;;1.77;;
10653;SDS011;5375;51.250;6.776;2022-11-11T08:55:17;4.45;;;1.90;;
10653;SDS011;5375;51.250;6.776;2022-11-11T08:57:43;2.90;;;1.80;;
10653;SDS011;5375;51.250;6.776;2022-11-11T09:00:09;2.83;;;1.73;;
10653;SDS011;5375;51.250;6.776;2022-11-11T09:02:36;2.42;;;1.88;;
10653;SDS011;5375;51.250;6.776;2022-11-11T09:05:02;3.08;;;1.80;;
10653;SDS011;5375;51.250;6.776;2022-11-11T09:07:28;2.65;;;1.70;;
10653;SDS011;5375;51.250;6.776;2022-11-11T09:09:54;2.65;;;1.58;;
10653;SDS011;5375;51.250;6.776;2022-11-11T09:12:19;3.83;;;2.10;;
10653;SDS011;5375;51.250;6.776;2022-11-11T09:14:45;4.35;;;1.90;;
10653;SDS011;5375;51.250;6.776;2022-11-11T09:17:12;3.53;;;1.63;;
10653;SDS011;5375;51.250;6.776;2022-11-11T09:19:38;3.45;;;1.80;;
10653;SDS011;5375;51.250;6.776;2022-11-11T09:22:03;3.38;;;1.67;;
10653;SDS011;5375;51.250;6.776;2022-11-11T09:24:29;2.72;;;1.90;;
10653;SDS011;5375;51.250;6.776;2022-11-11T09:26:55;4.28;;;1.83;;
10653;SDS011;5375;51.250;6.776;2022-11-11T09:29:20;2.70;;;1.90;;
10653;SDS011;5375;51.250;6.776;2022-11-11T09:31:46;2.92;;;1.90;;
10653;SDS011;5375;51.250;6.776;2022-11-11T09:34:12;4.32;;;2.00;;
10653;SDS011;5375;51.250;6.776;2022-11-11T09:36:38;4.22;;;1.98;;
10653;SDS011;5375;51.250;6.776;2022-11-11T09:39:04;4.00;;;2.17;;
10653;SDS011;5375;51.250;6.776;2022-11-11T09:47:12;6.05;;;2.00;;
10653;SDS011;5375;51.250;6.776;2022-11-11T09:49:45;6.15;;;2.28;;
10653;SDS011;5375;51.250;6.776;2022-11-11T09:57:48;4.07;;;2.30;;
10653;SDS011;5375;51.250;6.776;2022-11-11T10:00:28;4.18;;;2.08;;
10653;SDS011;5375;51.250;6.776;2022-11-11T10:03:00;4.80;;;2.00;;
10653;SDS011;5375;51.250;6.776;2022-11-11T10:05:41;5.10;;;2.40;;
10653;SDS011;5375;51.250;6.776;2022-11-11T10:14:15;3.58;;;2.10;;
10653;SDS011;5375;51.250;6.776;2022-11-11T10:22:32;6.65;;;2.30;;
10653;SDS011;5375;51.250;6.776;2022-11-11T10:27:43;4.15;;;2.28;;
10653;SDS011;5375;51.250;6.776;2022-11-11T10:30:24;3.85;;;2.55;;
10653;SDS011;5375;51.250;6.776;2022-11-11T10:33:01;2.95;;;2.10;;
10653;SDS011;5375;51.250;6.776;2022-11-11T10:35:53;4.20;;;2.15;;
10653;SDS011;5375;51.250;6.776;2022-11-11T10:38:32;4.68;;;2.10;;
10653;SDS011;5375;51.250;6.776;2022-11-11T10:41:16;4.32;;;2.10;;
10653;SDS011;5375;51.250;6.776;2022-11-11T10:43:47;6.25;;;2.63;;
10653;SDS011;5375;51.250;6.776;2022-11-11T10:46:14;6.40;;;2.20;;
10653;SDS011;5375;51.250;6.776;2022-11-11T10:49:03;2.85;;;1.90;;
10653;SDS011;5375;51.250;6.776;2022-11-11T10:51:54;3.45;;;2.13;;
10653;SDS011;5375;51.250;6.776;2022-11-11T10:54:49;3.33;;;1.95;;
10653;SDS011;5375;51.250;6.776;2022-11-11T11:00:13;3.75;;;1.80;;
10653;SDS011;5375;51.250;6.776;2022-11-11T11:03:41;3.85;;;2.05;;
10653;SDS011;5375;51.250;6.776;2022-11-11T11:06:24;3.88;;;2.22;;
10653;SDS011;5375;51.250;6.776;2022-11-11T11:08:35;5.95;;;1.88;;
10653;SDS011;5375;51.250;6.776;2022-11-11T11:11:24;5.63;;;2.03;;
10653;SDS011;5375;51.250;6.776;2022-11-11T11:14:05;4.40;;;1.88;;
10653;SDS011;5375;51.250;6.776;2022-11-11T11:16:41;4.73;;;2.30;;
10653;SDS011;5375;51.250;6.776;2022-11-11T11:21:48;2.45;;;1.80;;
10653;SDS011;5375;51.250;6.776;2022-11-11T11:24:26;2.72;;;1.80;;
10653;SDS011;5375;51.250;6.776;2022-11-11T11:27:02;3.67;;;2.00;;
10653;SDS011;5375;51.250;6.776;2022-11-11T11:37:09;2.88;;;1.83;;
10653;SDS011;5375;51.250;6.776;2022-11-11T11:39:36;4.57;;;2.17;;
10653;SDS011;5375;51.250;6.776;2022-11-11T11:42:03;4.13;;;2.10;;
10653;SDS011;5375;51.250;6.776;2022-11-11T11:44:30;2.50;;;1.90;;
10653;SDS011;5375;51.250;6.776;2022-11-11T11:47:01;3.92;;;1.90;;
10653;SDS011;5375;51.250;6.776;2022-11-11T11:52:06;3.53;;;2.00;;
10653;SDS011;5375;51.250;6.776;2022-11-11T11:54:55;3.50;;;1.77;;
10653;SDS011;5375;51.250;6.776;2022-11-11T11:57:40;3.00;;;1.80;;
10653;SDS011;5375;51.250;6.776;2022-11-11T12:00:16;2.58;;;1.58;;
10653;SDS011;5375;51.250;6.776;2022-11-11T12:05:48;4.68;;;1.92;;
10653;SDS011;5375;51.250;6.776;2022-11-11T12:08:26;5.05;;;2.45;;
10653;SDS011;5375;51.250;6.776;2022-11-11T12:13:54;3.40;;;1.85;;
10653;SDS011;5375;51.250;6.776;2022-11-11T12:16:28;4.47;;;1.90;;
10653;SDS011;5375;51.250;6.776;2022-11-11T12:22:04;4.22;;;1.80;;
10653;SDS011;5375;51.250;6.776;2022-11-11T12:24:50;3.65;;;1.88;;
10653;SDS011;5375;51.250;6.776;2022-11-11T12:30:11;2.05;;;1.70;;
10653;SDS011;5375;51.250;6.776;2022-11-11T12:43:42;3.03;;;1.67;;
10653;SDS011;5375;51.250;6.776;2022-11-11T12:55:02;2.90;;;1.83;;
10653;SDS011;5375;51.250;6.776;2022-11-11T12:57:41;4.93;;;1.92;;
10653;SDS011;5375;51.250;6.776;2022-11-11T13:00:23;3.78;;;1.90;;
10653;SDS011;5375;51.250;6.776;2022-11-11T13:11:21;2.50;;;1.77;;
10653;SDS011;5375;51.250;6.776;2022-11-11T13:17:00;4.68;;;2.00;;
10653;SDS011;5375;51.250;6.776;2022-11-11T13:19:40;5.03;;;1.63;;
10653;SDS011;5375;51.250;6.776;2022-11-11T13:24:48;3.58;;;1.83;;
10653;SDS011;5375;51.250;6.776;2022-11-11T13:32:40;3.27;;;1.70;;
10653;SDS011;5375;51.250;6.776;2022-11-11T13:35:20;3.05;;;1.60;;
10653;SDS011;5375;51.250;6.776;2022-11-11T13:37:49;3.17;;;1.90;;
10653;SDS011;5375;51.250;6.776;2022-11-11T13:42:57;3.33;;;1.80;;
10653;SDS011;5375;51.250;6.776;2022-11-11T13:45:27;2.60;;;1.50;;
10653;SDS011;5375;51.250;6.776;2022-11-11T13:47:56;3.22;;;1.70;;
10653;SDS011;5375;51.250;6.776;2022-11-11T13:50:32;3.22;;;1.88;;
10653;SDS011;5375;51.250;6.776;2022-11-11T13:53:03;3.05;;;1.67;;
10653;SDS011;5375;51.250;6.776;2022-11-11T13:55:38;3.00;;;1.80;;
10653;SDS011;5375;51.250;6.776;2022-11-11T13:58:25;3.67;;;1.65;;
10653;SDS011;5375;51.250;6.776;2022-11-11T14:01:07;3.95;;;1.90;;
10653;SDS011;5375;51.250;6.776;2022-11-11T14:13:51;3.30;;;1.50;;
10653;SDS011;5375;51.250;6.776;2022-11-11T14:21:53;2.77;;;1.50;;
10653;SDS011;5375;51.250;6.776;2022-11-11T14:24:34;3.22;;;1.80;;
10653;SDS011;5375;51.250;6.776;2022-11-11T14:27:03;2.60;;;1.55;;
10653;SDS011;5375;51.250;6.776;2022-11-11T14:29:52;2.28;;;1.65;;
10653;SDS011;5375;51.250;6.776;2022-11-11T14:40:38;3.05;;;1.65;;
10653;SDS011;5375;51.250;6.776;2022-11-11T14:46:03;3.97;;;1.70;;
10653;SDS011;5375;51.250;6.776;2022-11-11T14:48:49;5.25;;;1.90;;
10653;SDS011;5375;51.250;6.776;2022-11-11T14:51:33;3.30;;;2.00;;
10653;SDS011;5375;51.250;6.776;2022-11-11T14:54:29;2.22;;;1.60;;
10653;SDS011;5375;51.250;6.776;2022-11-11T14:57:09;3.38;;;2.03;;
10653;SDS011;5375;51.250;6.776;2022-11-11T14:59:45;6.47;;;1.90;;
10653;SDS011;5375;51.250;6.776;2022-11-11T15:02:14;4.15;;;1.70;;
10653;SDS011;5375;51.250;6.776;2022-11-11T15:04:47;3.50;;;1.90;;
10653;SDS011;5375;51.250;6.776;2022-11-11T15:07:17;3.58;;;1.73;;
10653;SDS011;5375;51.250;6.776;2022-11-11T15:09:59;4.13;;;1.92;;
10653;SDS011;5375;51.250;6.776;2022-11-11T15:15:28;3.63;;;1.90;;
10653;SDS011;5375;51.250;6.776;2022-11-11T15:21:06;2.35;;;1.67;;
10653;SDS011;5375;51.250;6.776;2022-11-11T15:29:15;3.83;;;1.98;;
10653;SDS011;5375;51.250;6.776;2022-11-11T15:34:38;4.18;;;1.83;;
10653;SDS011;5375;51.250;6.776;2022-11-11T15:37:16;8.05;;;2.20;;
10653;SDS011;5375;51.250;6.776;2022-11-11T15:39:48;4.43;;;1.60;;
10653;SDS011;5375;51.250;6.776;2022-11-11T15:45:13;9.38;;;1.83;;
10653;SDS011;5375;51.250;6.776;2022-11-11T15:47:44;4.13;;;1.70;;
10653;SDS011;5375;51.250;6.776;2022-11-11T15:50:15;3.55;;;1.80;;
10653;SDS011;5375;51.250;6.776;2022-11-11T15:52:42;3.42;;;1.70;;
10653;SDS011;5375;51.250;6.776;2022-11-11T15:55:17;5.30;;;1.90;;
10653;SDS011;5375;51.250;6.776;2022-11-11T15:57:50;4.20;;;1.70;;
10653;SDS011;5375;51.250;6.776;2022-11-11T16:02:48;3.08;;;1.95;;
10653;SDS011;5375;51.250;6.776;2022-11-11T16:05:22;2.73;;;1.73;;
10653;SDS011;5375;51.250;6.776;2022-11-11T16:07:49;3.65;;;1.85;;
10653;SDS011;5375;51.250;6.776;2022-11-11T16:10:28;3.55;;;1.80;;
10653;SDS011;5375;51.250;6.776;2022-11-11T16:15:49;4.05;;;1.80;;
10653;SDS011;5375;51.250;6.776;2022-11-11T16:18:31;2.90;;;1.90;;
10653;SDS011;5375;51.250;6.776;2022-11-11T16:23:31;3.22;;;1.77;;
10653;SDS011;5375;51.250;6.776;2022-11-11T16:25:58;4.90;;;1.90;;
10653;SDS011;5375;51.250;6.776;2022-11-11T16:28:25;3.05;;;1.77;;
10653;SDS011;5375;51.250;6.776;2022-11-11T16:30:53;3.33;;;1.93;;
10653;SDS011;5375;51.250;6.776;2022-11-11T16:35:50;6.00;;;2.15;;
10653;SDS011;5375;51.250;6.776;2022-11-11T16:38:32;2.85;;;1.50;;
10653;SDS011;5375;51.250;6.776;2022-11-11T16:40:58;3.85;;;2.10;;
10653;SDS011;5375;51.250;6.776;2022-11-11T16:43:24;4.68;;;1.73;;
10653;SDS011;5375;51.250;6.776;2022-11-11T16:46:04;4.68;;;2.13;;
10653;SDS011;5375;51.250;6.776;2022-11-11T16:51:02;3.00;;;1.73;;
10653;SDS011;5375;51.250;6.776;2022-11-11T16:53:32;2.75;;;1.70;;
10653;SDS011;5375;51.250;6.776;2022-11-11T16:56:00;6.28;;;2.03;;
10653;SDS011;5375;51.250;6.776;2022-11-11T16:58:27;6.30;;;2.22;;
10653;SDS011;5375;51.250;6.776;2022-11-11T17:01:00;6.07;;;1.93;;
10653;SDS011;5375;51.250;6.776;2022-11-11T17:03:27;4.57;;;2.05;;
10653;SDS011;5375;51.250;6.776;2022-11-11T17:05:54;3.33;;;1.95;;
10653;SDS011;5375;51.250;6.776;2022-11-11T17:11:03;3.60;;;1.60;;
10653;SDS011;5375;51.250;6.776;2022-11-11T17:13:49;3.38;;;1.85;;
10653;SDS011;5375;51.250;6.776;2022-11-11T17:16:15;3.45;;;2.10;;
10653;SDS011;5375;51.250;6.776;2022-11-11T17:18:40;2.25;;;1.65;;
10653;SDS011;5375;51.250;6.776;2022-11-11T17:21:06;5.20;;;2.10;;
10653;SDS011;5375;51.250;6.776;2022-11-11T17:23:32;5.13;;;1.90;;
10653;SDS011;5375;51.250;6.776;2022-11-11T17:25:58;2.92;;;1.65;;
10653;SDS011;5375;51.250;6.776;2022-11-11T17:28:26;3.83;;;2.08;;
10653;SDS011;5375;51.250;6.776;2022-11-11T17:30:56;2.17;;;1.70;;
10653;SDS011;5375;51.250;6.776;2022-11-11T17:33:25;2.58;;;1.83;;
10653;SDS011;5375;51.250;6.776;2022-11-11T17:35:51;2.63;;;1.67;;
10653;SDS011;5375;51.250;6.776;2022-11-11T17:38:18;2.50;;;1.70;;
10653;SDS011;5375;51.250;6.776;2022-11-11T17:40:45;3.97;;;1.77;;
10653;SDS011;5375;51.250;6.776;2022-11-11T17:43:11;3.15;;;1.80;;
10653;SDS011;5375;51.250;6.776;2022-11-11T17:45:37;3.25;;;1.92;;
10653;SDS011;5375;51.250;6.776;2022-11-11T17:48:03;4.73;;;2.33;;
10653;SDS011;5375;51.250;6.776;2022-11-11T17:50:29;5.13;;;1.98;;
10653;SDS011;5375;51.250;6.776;2022-11-11T17:52:54;3.75;;;1.95;;
10653;SDS011;5375;51.250;6.776;2022-11-11T17:55:21;3.10;;;2.10;;
10653;SDS011;5375;51.250;6.776;2022-11-11T17:57:47;3.92;;;2.05;;
10653;SDS011;5375;51.250;6.776;2022-11-11T18:00:13;3.22;;;2.03;;
10653;SDS011;5375;51.250;6.776;2022-11-11T18:02:40;4.15;;;1.90;;
10653;SDS011;5375;51.250;6.776;2022-11-11T18:05:06;3.50;;;1.80;;
10653;SDS011;5375;51.250;6.776;2022-11-11T18:07:32;4.00;;;1.70;;
10653;SDS011;5375;51.250;6.776;2022-11-11T18:09:58;3.55;;;2.00;;
10653;SDS011;5375;51.250;6.776;2022-11-11T18:12:26;5.43;;;2.10;;
10653;SDS011;5375;51.250;6.776;2022-11-11T18:14:54;2.30;;;1.63;;